Time;durP1;ratioP1;P1;durP2;ratioP2;P2;SDS_P1;SDS_P2;PMS_P1;PMS_P2;Temp;Humidity;BMP_temperature;BMP_pressure;BME280_temperature;BME280_humidity;BME280_pressure;Samples;Min_cycle;Max_cycle;Signal;HPM_P1;HPM_P2
2021/05/11 00:00:42;;;;;;;4.63;3.80;;;;;;;14.63;88.44;100319.55;128482;1101;62253;-78
2021/05/11 00:03:09;;;;;;;6.63;4.10;;;;;;;14.61;88.23;100297.58;128476;1101;62837;-78
2021/05/11 00:05:36;;;;;;;5.97;4.57;;;;;;;14.62;88.02;100271.70;128428;1101;62184;-78
2021/05/11 00:08:03;;;;;;;6.70;4.07;;;;;;;14.62;87.97;100272.54;128478;1101;62016;-78
2021/05/11 00:10:29;;;;;;;5.30;3.93;;;;;;;14.60;87.89;100274.60;128382;1101;62985;-78
2021/05/11 00:12:56;;;;;;;6.30;4.30;;;;;;;14.61;88.02;100270.89;128418;1101;62151;-78
2021/05/11 00:15:24;;;;;;;5.73;4.20;;;;;;;14.62;88.37;100285.89;128483;1101;62718;-78
2021/05/11 00:17:51;;;;;;;4.90;3.70;;;;;;;14.65;87.97;100288.13;128215;1102;62092;-78
2021/05/11 00:20:19;;;;;;;7.70;4.63;;;;;;;14.65;88.21;100288.13;128345;1101;63591;-78
2021/05/11 00:22:47;;;;;;;6.43;4.13;;;;;;;14.68;88.33;100270.86;128471;1101;62059;-78
2021/05/11 00:25:14;;;;;;;5.63;4.60;;;;;;;14.72;88.37;100255.23;128434;1101;62051;-77
2021/05/11 00:27:41;;;;;;;7.27;3.97;;;;;;;14.73;88.33;100264.88;128440;1101;62839;-77
2021/05/11 00:30:10;;;;;;;6.10;4.73;;;;;;;14.74;88.15;100251.31;128460;1101;62131;-78
2021/05/11 00:32:36;;;;;;;6.80;4.13;;;;;;;14.77;88.47;100274.94;128511;1101;62050;-77
2021/05/11 00:35:04;;;;;;;6.23;4.90;;;;;;;14.80;88.17;100300.39;128448;1101;62163;-77
2021/05/11 00:37:30;;;;;;;9.10;3.57;;;;;;;14.79;88.16;100267.53;128399;1101;62293;-77
2021/05/11 00:39:57;;;;;;;6.63;3.70;;;;;;;14.78;88.38;100254.39;128427;1101;62161;-77
2021/05/11 00:42:23;;;;;;;5.23;4.37;;;;;;;14.79;88.44;100293.39;128451;1101;62239;-77
2021/05/11 00:44:50;;;;;;;6.93;4.17;;;;;;;14.78;89.47;100310.47;128486;1101;62098;-77
2021/05/11 00:47:19;;;;;;;5.77;4.27;;;;;;;14.73;88.55;100272.88;128471;1101;62190;-78
2021/05/11 00:49:48;;;;;;;7.63;5.13;;;;;;;14.71;88.75;100233.06;128476;1101;62015;-77
2021/05/11 00:52:15;;;;;;;8.00;4.97;;;;;;;14.71;89.27;100225.06;128456;1101;62834;-78
2021/05/11 00:54:42;;;;;;;8.10;5.77;;;;;;;14.71;89.05;100250.95;128484;1101;62735;-78
2021/05/11 00:57:10;;;;;;;7.37;5.53;;;;;;;14.71;88.91;100266.97;128399;1101;62273;-78
2021/05/11 00:59:37;;;;;;;7.43;6.23;;;;;;;14.73;89.04;100259.53;128482;1102;62470;-78
2021/05/11 01:02:07;;;;;;;7.80;6.33;;;;;;;14.73;88.44;100246.19;128426;1101;62245;-78
2021/05/11 01:04:35;;;;;;;7.13;5.70;;;;;;;14.73;88.67;100254.19;128218;1101;62091;-78
2021/05/11 01:07:02;;;;;;;7.00;6.30;;;;;;;14.73;88.81;100248.85;128406;1101;62605;-78
2021/05/11 01:09:30;;;;;;;10.53;5.90;;;;;;;14.73;88.63;100246.19;128522;1101;62300;-78
2021/05/11 01:11:57;;;;;;;8.43;6.77;;;;;;;14.73;88.31;100244.36;128495;1101;62461;-78
2021/05/11 01:14:28;;;;;;;11.20;6.80;;;;;;;14.72;88.72;100236.55;128212;1101;64214;-78
2021/05/11 01:17:00;;;;;;;7.87;5.90;;;;;;;14.71;88.67;100226.92;128415;1101;63936;-78
2021/05/11 01:19:44;;;;;;;9.63;6.63;;;;;;;14.74;88.90;100229.95;128428;1101;62278;-78
2021/05/11 01:25:12;;;;;;;9.17;5.90;;;;;;;14.76;88.92;100222.55;128303;1101;62823;-78
2021/05/11 01:27:54;;;;;;;7.60;6.23;;;;;;;14.74;88.75;100229.95;128342;1101;62228;-76
2021/05/11 01:43:56;;;;;;;10.10;6.07;;;;;;;14.68;88.36;100218.30;128371;1101;62219;-77
2021/05/11 02:11:19;;;;;;;11.53;8.23;;;;;;;14.66;89.89;100185.66;128217;1101;62274;-77
2021/05/11 02:18:00;;;;;;;10.13;7.93;;;;;;;14.69;90.03;100192.42;128264;1101;62692;-78
2021/05/11 02:24:38;;;;;;;10.03;7.70;;;;;;;14.67;89.87;100195.30;128374;1101;62056;-78
2021/05/11 02:27:05;;;;;;;10.77;7.57;;;;;;;14.67;89.88;100199.82;128335;1101;62597;-78
2021/05/11 02:29:31;;;;;;;9.90;8.17;;;;;;;14.71;89.89;100194.88;128369;1101;62077;-78
2021/05/11 02:31:58;;;;;;;8.50;6.73;;;;;;;14.72;89.98;100205.32;128416;1101;62116;-77
2021/05/11 02:34:24;;;;;;;10.43;7.23;;;;;;;14.76;90.00;100205.72;128423;1101;62334;-77
2021/05/11 02:36:51;;;;;;;10.93;7.80;;;;;;;14.77;89.59;100202.00;128407;1101;62982;-78
2021/05/11 02:39:18;;;;;;;11.27;7.63;;;;;;;14.78;89.80;100206.33;128345;1101;62196;-77
2021/05/11 02:41:45;;;;;;;9.50;5.70;;;;;;;14.77;89.53;100202.00;128384;1101;62021;-78
2021/05/11 02:44:15;;;;;;;9.00;7.30;;;;;;;14.76;89.69;100211.88;128405;1101;62240;-78
2021/05/11 02:46:42;;;;;;;8.63;6.10;;;;;;;14.79;89.71;100213.29;128354;1101;62643;-78
2021/05/11 02:49:09;;;;;;;11.60;7.07;;;;;;;14.80;89.34;100210.41;128382;1101;62048;-78
2021/05/11 02:51:36;;;;;;;9.27;7.03;;;;;;;14.80;89.41;100217.61;128393;1101;62076;-78
2021/05/11 02:54:02;;;;;;;14.37;7.47;;;;;;;14.79;89.25;100213.29;128368;1101;62629;-78
2021/05/11 02:56:29;;;;;;;10.40;7.50;;;;;;;14.76;89.66;100222.55;128415;1101;62215;-79
2021/05/11 02:58:55;;;;;;;11.27;7.97;;;;;;;14.76;89.97;100229.75;128392;1101;62190;-78
2021/05/11 03:01:22;;;;;;;9.20;7.27;;;;;;;14.75;89.37;100212.92;128407;1101;63677;-78
2021/05/11 03:03:49;;;;;;;12.70;7.57;;;;;;;14.75;89.32;100212.08;128369;1101;62515;-78
2021/05/11 03:06:18;;;;;;;8.17;6.07;;;;;;;14.72;89.53;100194.64;128394;1101;62149;-78
2021/05/11 03:08:45;;;;;;;13.23;6.77;;;;;;;14.70;89.24;100198.56;128341;1101;62242;-78
2021/05/11 03:11:11;;;;;;;10.20;7.50;;;;;;;14.67;89.42;100200.63;128391;1101;62089;-77
2021/05/11 03:13:38;;;;;;;8.10;5.77;;;;;;;14.66;89.77;100199.01;128413;1101;62997;-77
2021/05/11 03:16:05;;;;;;;10.17;6.50;;;;;;;14.64;89.54;100206.41;128307;1101;61983;-78
2021/05/11 03:18:32;;;;;;;8.27;5.27;;;;;;;14.62;89.75;100219.15;128312;1101;62312;-78
2021/05/11 03:20:59;;;;;;;9.07;6.70;;;;;;;14.60;89.98;100218.55;128376;1101;62480;-78
2021/05/11 03:23:25;;;;;;;9.33;7.97;;;;;;;14.59;89.66;100230.23;128371;1101;62596;-78
2021/05/11 03:25:52;;;;;;;10.17;7.00;;;;;;;14.58;89.79;100227.80;128253;1101;62344;-77
2021/05/11 03:28:19;;;;;;;13.77;7.60;;;;;;;14.57;89.59;100232.30;128269;1101;62844;-79
2021/05/11 03:30:45;;;;;;;10.93;7.10;;;;;;;14.54;89.54;100237.23;128359;1101;62218;-79
2021/05/11 03:33:12;;;;;;;12.90;8.50;;;;;;;14.52;90.03;100242.77;128385;1101;62265;-78
2021/05/11 03:35:38;;;;;;;10.33;7.37;;;;;;;14.51;89.96;100233.11;128350;1101;63043;-77
2021/05/11 03:38:06;;;;;;;10.30;6.57;;;;;;;14.52;90.02;100237.44;128345;1101;62257;-81
2021/05/11 03:40:33;;;;;;;9.83;6.63;;;;;;;14.52;89.95;100234.77;128337;1101;62123;-79
2021/05/11 03:43:49;;;;;;;11.83;6.63;;;;;;;14.52;89.74;100226.77;128417;1101;62436;-80
2021/05/11 03:45:52;;;;;;;10.63;6.40;;;;;;;14.53;89.41;100223.05;128311;1101;62330;-79
2021/05/11 03:48:19;;;;;;;6.50;4.13;;;;;;;14.52;89.65;100226.77;128437;1101;62238;-80
2021/05/11 03:50:46;;;;;;;11.07;6.63;;;;;;;14.50;89.67;100218.14;128412;1101;62805;-79
2021/05/11 03:53:13;;;;;;;9.60;6.70;;;;;;;14.50;89.52;100226.16;128352;1101;62367;-80
2021/05/11 03:55:40;;;;;;;6.20;4.93;;;;;;;14.49;89.61;100216.49;128391;1101;62502;-79
2021/05/11 03:58:07;;;;;;;6.97;4.57;;;;;;;14.47;89.84;100219.39;128404;1101;62251;-79
2021/05/11 04:00:34;;;;;;;6.77;4.47;;;;;;;14.47;89.28;100218.55;128384;1101;62278;-79
2021/05/11 04:03:01;;;;;;;8.50;3.97;;;;;;;14.46;89.67;100224.94;128378;1101;63414;-79
2021/05/11 04:05:30;;;;;;;5.63;4.77;;;;;;;14.44;89.76;100216.33;128405;1101;62431;-79
2021/05/11 04:07:58;;;;;;;7.73;5.50;;;;;;;14.42;89.48;100215.72;128400;1101;63317;-79
2021/05/11 04:10:32;;;;;;;5.23;3.83;;;;;;;14.40;89.59;100212.44;128371;1101;62489;-79
2021/05/11 04:16:12;;;;;;;7.33;4.77;;;;;;;14.40;89.06;100205.24;128326;1101;63085;-78
2021/05/11 04:18:13;;;;;;;6.67;4.40;;;;;;;14.38;89.05;100193.16;128362;1101;62316;-78
2021/05/11 04:20:40;;;;;;;7.03;4.70;;;;;;;14.38;88.98;100190.48;128421;1101;62255;-79
2021/05/11 04:23:08;;;;;;;6.90;5.10;;;;;;;14.37;88.95;100196.86;128374;1101;62218;-79
2021/05/11 04:25:35;;;;;;;5.27;4.10;;;;;;;14.38;88.79;100211.83;128405;1101;62223;-79
2021/05/11 04:28:02;;;;;;;6.07;4.07;;;;;;;14.36;88.79;100208.55;128397;1101;63585;-79
2021/05/11 04:30:29;;;;;;;6.50;5.00;;;;;;;14.35;88.80;100209.59;128372;1101;62434;-78
2021/05/11 04:32:56;;;;;;;7.53;5.10;;;;;;;14.28;88.87;100207.77;128335;1101;62011;-78
2021/05/11 04:35:24;;;;;;;6.97;5.00;;;;;;;14.25;88.72;100197.50;128399;1101;62144;-79
2021/05/11 04:37:51;;;;;;;4.57;3.30;;;;;;;14.22;89.02;100191.80;128385;1101;61731;-79
2021/05/11 04:40:18;;;;;;;8.97;5.37;;;;;;;14.17;88.98;100184.40;128424;1101;62094;-79
2021/05/11 04:42:46;;;;;;;7.70;3.77;;;;;;;14.16;88.80;100188.11;128386;1101;62156;-79
2021/05/11 04:45:19;;;;;;;4.80;4.07;;;;;;;14.14;88.71;100195.50;128410;1101;63601;-78
2021/05/11 04:47:51;;;;;;;7.53;3.57;;;;;;;14.14;89.20;100181.36;128406;1101;62495;-78
2021/05/11 04:50:23;;;;;;;4.77;3.57;;;;;;;14.13;88.76;100169.88;128371;1101;62349;-78
2021/05/11 04:52:51;;;;;;;3.87;2.93;;;;;;;14.11;88.30;100179.94;128368;1101;63592;-78
2021/05/11 04:55:19;;;;;;;5.87;3.27;;;;;;;14.10;88.14;100178.28;128392;1101;62031;-78
2021/05/11 04:57:46;;;;;;;5.73;3.80;;;;;;;14.09;87.58;100181.99;128345;1101;62401;-78
2021/05/11 05:00:15;;;;;;;3.77;2.37;;;;;;;14.10;87.85;100180.14;128386;1101;62162;-78
2021/05/11 05:02:53;;;;;;;4.65;2.60;;;;;;;14.06;87.28;100183.20;128360;1101;62501;-78
2021/05/11 05:05:25;;;;;;;5.47;3.47;;;;;;;14.07;87.48;100189.38;128424;1101;61999;-78
2021/05/11 05:07:52;;;;;;;14.13;2.97;;;;;;;14.05;87.49;100186.11;128389;1101;62159;-78
2021/05/11 05:10:19;;;;;;;4.97;2.47;;;;;;;14.06;87.70;100177.88;128379;1101;62281;-78
2021/05/11 05:12:46;;;;;;;3.93;2.93;;;;;;;14.06;87.48;100174.39;128393;1101;62300;-78
2021/05/11 05:15:14;;;;;;;4.37;3.13;;;;;;;14.09;87.55;100179.33;128382;1101;61966;-77
2021/05/11 05:17:42;;;;;;;6.37;3.33;;;;;;;14.13;87.81;100177.88;128389;1101;62867;-77
2021/05/11 05:20:10;;;;;;;5.40;2.97;;;;;;;14.12;87.75;100181.55;128375;1101;62368;-77
2021/05/11 05:22:37;;;;;;;5.80;2.80;;;;;;;14.12;87.58;100184.23;128392;1101;62223;-76
2021/05/11 05:25:12;;;;;;;4.83;2.60;;;;;;;14.11;87.67;100185.27;128332;1101;62353;-77
2021/05/11 05:27:59;;;;;;;5.60;2.33;;;;;;;14.10;88.37;100175.61;128381;1101;62070;-77
2021/05/11 05:30:26;;;;;;;3.67;3.00;;;;;;;14.09;88.34;100176.66;128215;1102;62858;-78
2021/05/11 05:32:54;;;;;;;3.80;3.00;;;;;;;14.11;88.48;100171.09;128385;1101;62279;-74
2021/05/11 05:35:21;;;;;;;5.40;2.33;;;;;;;14.14;88.58;100157.34;128423;1101;62293;-75
2021/05/11 05:37:48;;;;;;;5.67;3.10;;;;;;;14.20;88.68;100156.50;128352;1101;62914;-75
2021/05/11 05:40:19;;;;;;;4.60;1.97;;;;;;;14.24;88.60;100150.53;128386;1101;62055;-74
2021/05/11 05:42:47;;;;;;;3.83;2.63;;;;;;;14.29;88.25;100152.55;128418;1101;63919;-75
2021/05/11 05:45:15;;;;;;;3.07;2.13;;;;;;;14.32;87.52;100148.64;128370;1096;62204;-75
2021/05/11 05:47:51;;;;;;;4.47;3.47;;;;;;;14.33;86.96;100145.77;128356;1101;62197;-75
2021/05/11 05:50:24;;;;;;;5.60;2.30;;;;;;;14.35;87.08;100138.37;128388;1101;62421;-74
2021/05/11 05:53:01;;;;;;;4.53;2.53;;;;;;;14.40;86.85;100135.05;128357;1101;61876;-73
2021/05/11 05:55:29;;;;;;;4.67;3.03;;;;;;;14.44;86.97;100142.41;128387;1101;63385;-74
2021/05/11 05:57:57;;;;;;;2.87;2.00;;;;;;;14.46;86.01;100144.88;128383;1101;62154;-74
2021/05/11 06:00:25;;;;;;;5.20;3.00;;;;;;;14.48;86.08;100153.48;128349;1101;62243;-74
2021/05/11 06:02:54;;;;;;;2.97;2.10;;;;;;;14.52;85.67;100152.03;128122;1102;62094;-74
2021/05/11 06:05:23;;;;;;;3.87;2.63;;;;;;;14.54;85.28;100147.30;128279;1101;62119;-74
2021/05/11 06:07:51;;;;;;;7.33;1.97;;;;;;;14.56;84.78;100139.92;128382;1101;63372;-74
2021/05/11 06:10:19;;;;;;;5.00;2.53;;;;;;;14.55;84.95;100150.77;128309;1101;62224;-74
2021/05/11 06:12:53;;;;;;;4.10;2.07;;;;;;;14.56;85.01;100160.47;128399;1101;62129;-74
2021/05/11 06:18:26;;;;;;;3.10;2.45;;;;;;;14.53;84.23;100140.30;128074;1104;62589;-74
2021/05/11 06:20:53;;;;;;;3.47;2.80;;;;;;;14.55;84.79;100132.94;127984;1105;62769;-73
2021/05/11 06:23:20;;;;;;;4.10;3.23;;;;;;;14.63;84.49;100124.67;128141;1101;62465;-74
2021/05/11 06:25:47;;;;;;;3.67;1.50;;;;;;;14.72;84.81;100122.56;128146;1102;62451;-77
2021/05/11 06:28:15;;;;;;;8.77;5.50;;;;;;;14.77;82.98;100121.91;128188;1101;62027;-76
2021/05/11 06:30:42;;;;;;;2.77;1.87;;;;;;;14.84;82.65;100128.84;128359;1101;63084;-76
2021/05/11 06:33:09;;;;;;;5.60;2.43;;;;;;;14.89;82.21;100137.02;128445;1101;62850;-76
2021/05/11 06:35:36;;;;;;;3.03;1.80;;;;;;;14.91;81.88;100131.46;128066;1102;64195;-76
2021/05/11 06:38:25;;;;;;;2.87;1.70;;;;;;;14.94;80.98;100128.38;127406;1101;63479;-75
2021/05/11 06:40:53;;;;;;;4.10;3.07;;;;;;;14.97;80.99;100127.92;128288;1101;62127;-76
2021/05/11 06:43:26;;;;;;;9.53;3.80;;;;;;;14.98;80.84;100115.38;128437;1101;62608;-77
2021/05/11 06:53:56;;;;;;;2.50;1.67;;;;;;;14.96;80.93;100106.77;128398;1101;62178;-77
2021/05/11 06:56:23;;;;;;;3.10;1.63;;;;;;;14.98;80.55;100116.22;128406;1101;62413;-77
2021/05/11 06:58:50;;;;;;;2.53;1.70;;;;;;;15.06;80.84;100149.84;128395;1101;62489;-76
2021/05/11 07:01:22;;;;;;;4.07;1.73;;;;;;;15.06;80.28;100172.02;128301;1101;62566;-76
2021/05/11 07:03:49;;;;;;;4.27;1.80;;;;;;;15.09;80.25;100184.95;128384;1101;62597;-79
2021/05/11 07:06:17;;;;;;;3.63;2.00;;;;;;;15.11;79.87;100183.91;128456;1101;62609;-77
2021/05/11 07:08:49;;;;;;;2.97;1.90;;;;;;;15.21;79.94;100189.59;128441;1101;62159;-78
2021/05/11 07:13:49;;;;;;;3.80;1.60;;;;;;;15.27;79.36;100194.06;128450;1101;62467;-77
2021/05/11 07:16:17;;;;;;;2.10;1.37;;;;;;;15.20;78.64;100187.97;128181;1101;62220;-77
2021/05/11 07:18:44;;;;;;;2.07;1.33;;;;;;;15.13;79.16;100171.16;128230;1102;63938;-77
2021/05/11 07:21:12;;;;;;;3.03;1.57;;;;;;;15.11;79.19;100146.50;128434;1101;62564;-77
2021/05/11 07:23:39;;;;;;;2.50;1.40;;;;;;;15.14;79.26;100136.21;128421;1101;62056;-77
2021/05/11 07:31:32;;;;;;;6.03;3.50;;;;;;;15.31;80.07;100123.11;128337;1101;64246;-77
2021/05/11 07:34:01;;;;;;;3.07;1.70;;;;;;;15.39;78.93;100122.83;128359;1101;62457;-76
2021/05/11 07:36:29;;;;;;;2.13;1.33;;;;;;;15.52;79.56;100121.08;128133;1101;62826;-77
2021/05/11 07:38:56;;;;;;;2.03;1.30;;;;;;;15.62;78.62;100110.66;128309;1101;63938;-78
2021/05/11 07:41:25;;;;;;;3.93;2.00;;;;;;;15.68;78.39;100107.09;128442;1101;62262;-77
2021/05/11 07:43:57;;;;;;;2.10;1.40;;;;;;;15.70;77.56;100089.81;128161;1101;62089;-78
2021/05/11 07:46:46;;;;;;;3.33;2.03;;;;;;;15.78;77.86;100072.66;128461;1101;62020;-78
2021/05/11 07:49:35;;;;;;;4.63;2.33;;;;;;;16.00;77.61;100074.86;128465;1101;62584;-78
2021/05/11 08:03:18;;;;;;;2.30;1.30;;;;;;;16.55;75.14;100092.63;128338;1101;62018;-73
2021/05/11 08:16:41;;;;;;;4.87;1.50;;;;;;;16.72;71.85;100061.45;128481;1101;62160;-82
2021/05/11 08:19:27;;;;;;;3.93;1.53;;;;;;;16.69;72.48;100064.61;128445;1101;62170;-81
2021/05/11 08:27:37;;;;;;;2.80;1.30;;;;;;;16.38;71.68;100074.53;128500;1101;62010;-81
2021/05/11 08:30:05;;;;;;;2.10;1.10;;;;;;;16.31;71.29;100060.45;128447;1101;62231;-81
2021/05/11 08:32:32;;;;;;;6.60;2.03;;;;;;;16.34;71.23;100043.91;128458;1101;62484;-80
2021/05/11 08:34:59;;;;;;;2.10;0.80;;;;;;;16.40;70.86;100050.22;128468;1101;62160;-81
2021/05/11 08:37:26;;;;;;;2.43;1.40;;;;;;;16.57;71.53;100069.92;128449;1101;62143;-81
2021/05/11 08:39:53;;;;;;;2.07;1.10;;;;;;;16.74;70.37;100080.79;128352;1101;62264;-80
2021/05/11 08:42:20;;;;;;;2.67;1.33;;;;;;;16.95;70.92;100084.81;128478;1101;62099;-80
2021/05/11 08:44:48;;;;;;;3.30;1.20;;;;;;;17.17;69.11;100074.34;128183;1101;63238;-81
2021/05/11 08:47:18;;;;;;;2.50;0.90;;;;;;;17.34;68.10;100071.77;128496;1101;61952;-81
2021/05/11 08:49:46;;;;;;;3.37;1.30;;;;;;;17.51;68.75;100056.59;128461;1101;62259;-80
2021/05/11 08:52:41;;;;;;;1.50;0.80;;;;;;;17.77;68.06;100059.78;128533;1101;62026;-80
2021/05/11 09:23:32;;;;;;;1.70;0.80;;;;;;;18.28;61.59;100062.66;128343;1101;62784;-83
2021/05/11 09:25:53;;;;;;;3.40;2.20;;;;;;;18.78;59.55;100050.31;128493;1101;62102;-83
2021/05/11 09:28:48;;;;;;;2.90;0.75;;;;;;;18.75;59.41;100047.05;128518;1101;62110;-81
2021/05/11 09:34:04;;;;;;;9.63;6.83;;;;;;;18.72;59.61;100058.30;128500;1101;62146;-81
2021/05/11 09:59:03;;;;;;;3.60;2.00;;;;;;;19.20;58.32;100058.77;128454;1101;62801;-78
2021/05/11 10:10:33;;;;;;;1.70;0.60;;;;;;;19.52;56.55;100066.98;128431;1101;62133;-79
2021/05/11 10:37:05;;;;;;;2.80;0.83;;;;;;;18.78;56.57;100056.52;128497;1101;62227;-81
2021/05/11 10:39:37;;;;;;;2.00;1.30;;;;;;;18.77;55.20;100048.70;128435;1101;62178;-82
2021/05/11 10:42:39;;;;;;;3.33;0.90;;;;;;;18.69;55.95;100061.46;128492;1101;62083;-83
2021/05/11 10:47:36;;;;;;;3.77;0.77;;;;;;;18.64;56.36;100045.27;128424;1101;62880;-84
2021/05/11 10:50:04;;;;;;;2.00;0.80;;;;;;;18.71;57.03;100039.73;128349;1101;62255;-83
2021/05/11 10:52:42;;;;;;;2.97;1.03;;;;;;;18.77;56.59;100028.01;128425;1101;62188;-83
2021/05/11 10:55:30;;;;;;;2.13;0.80;;;;;;;18.83;55.58;100026.22;128186;1102;62351;-83
2021/05/11 10:58:03;;;;;;;2.63;0.80;;;;;;;18.98;56.17;100018.41;128439;1101;63078;-83
2021/05/11 11:00:38;;;;;;;2.73;0.93;;;;;;;19.10;56.31;100024.47;128428;1101;62397;-82
2021/05/11 11:03:22;;;;;;;2.17;0.90;;;;;;;19.16;56.17;100017.30;128435;1101;62170;-82
2021/05/11 11:05:57;;;;;;;2.93;0.83;;;;;;;19.14;56.72;100017.53;128448;1101;62195;-77
2021/05/11 11:08:39;;;;;;;1.87;0.80;;;;;;;19.10;55.87;100021.78;128461;1101;62071;-78
2021/05/11 11:11:13;;;;;;;4.33;1.33;;;;;;;18.92;55.52;100011.33;128411;1101;62618;-77
2021/05/11 11:13:48;;;;;;;1.55;0.78;;;;;;;18.85;56.30;100018.73;128471;1101;62884;-77
2021/05/11 11:16:17;;;;;;;1.50;1.00;;;;;;;18.74;56.83;100012.36;128428;1101;62118;-77
2021/05/11 11:18:45;;;;;;;2.93;0.90;;;;;;;18.66;57.15;100010.92;128416;1101;62112;-82
2021/05/11 11:23:53;;;;;;;1.70;0.87;;;;;;;18.51;57.25;100018.74;128421;1101;62122;-78
2021/05/11 11:26:30;;;;;;;19.83;13.83;;;;;;;18.40;57.28;100016.92;128440;1101;63981;-79
2021/05/11 11:29:03;;;;;;;3.40;1.93;;;;;;;18.37;58.43;100020.11;128412;1101;62275;-77
2021/05/11 11:31:33;;;;;;;4.97;1.77;;;;;;;18.26;58.27;100017.25;128467;1101;62085;-78
2021/05/11 11:34:35;;;;;;;2.33;1.03;;;;;;;18.10;58.53;100012.66;128414;1101;62907;-78
2021/05/11 11:37:07;;;;;;;3.63;0.80;;;;;;;17.97;59.44;100018.33;128182;1102;62278;-78
2021/05/11 11:39:46;;;;;;;1.43;0.70;;;;;;;17.80;59.31;100019.05;128419;1101;62239;-77
2021/05/11 11:42:28;;;;;;;2.70;1.03;;;;;;;17.68;59.70;100027.16;128400;1101;62652;-78
2021/05/11 11:45:00;;;;;;;3.03;1.37;;;;;;;17.64;59.80;100039.41;128426;1101;62850;-78
2021/05/11 11:47:29;;;;;;;3.83;1.00;;;;;;;17.61;60.01;100039.88;128378;1101;62361;-77
2021/05/11 11:50:00;;;;;;;2.77;0.80;;;;;;;17.67;60.27;100035.44;128413;1101;62011;-78
2021/05/11 12:00:23;;;;;;;4.43;1.43;;;;;;;17.90;59.77;100035.38;128422;1101;62166;-78
2021/05/11 12:02:54;;;;;;;2.73;1.00;;;;;;;18.01;60.22;100028.34;128427;1101;62228;-77
2021/05/11 12:05:23;;;;;;;2.03;0.87;;;;;;;18.14;58.96;100011.12;128394;1101;62740;-77
2021/05/11 12:07:59;;;;;;;2.47;0.80;;;;;;;18.22;59.71;99999.99;128382;1101;62585;-77
2021/05/11 12:10:27;;;;;;;1.63;0.80;;;;;;;18.32;58.47;100010.10;128120;1101;63416;-77
2021/05/11 12:12:55;;;;;;;5.37;1.80;;;;;;;18.42;58.18;100014.81;128450;1101;62040;-77
2021/05/11 12:15:23;;;;;;;1.83;0.87;;;;;;;18.45;58.10;100006.28;128453;1101;62097;-77
2021/05/11 12:18:04;;;;;;;4.30;1.20;;;;;;;18.47;57.83;100001.48;128378;1101;63064;-77
2021/05/11 12:20:59;;;;;;;2.60;0.80;;;;;;;18.54;57.30;99986.01;128362;1101;62327;-79
2021/05/11 12:23:27;;;;;;;2.30;1.00;;;;;;;18.57;57.66;99980.13;128159;1103;62453;-80
2021/05/11 12:25:59;;;;;;;1.30;0.53;;;;;;;18.66;57.20;99980.56;128401;1101;62179;-80
2021/05/11 12:28:40;;;;;;;4.93;0.93;;;;;;;18.66;57.11;99978.68;128408;1101;63016;-79
2021/05/11 12:31:09;;;;;;;3.60;1.10;;;;;;;18.66;56.99;99983.25;128385;1101;63484;-77
2021/05/11 12:33:43;;;;;;;3.60;0.87;;;;;;;18.79;57.02;99990.98;128396;1101;62277;-77
2021/05/11 12:36:23;;;;;;;2.00;0.67;;;;;;;18.87;57.11;99990.58;128445;1101;62520;-77
2021/05/11 12:39:32;;;;;;;2.07;0.90;;;;;;;19.02;56.74;99998.03;128414;1101;62178;-77
2021/05/11 12:42:13;;;;;;;3.03;0.97;;;;;;;19.01;56.02;100011.72;128377;1101;62152;-75
2021/05/11 12:44:40;;;;;;;1.83;0.80;;;;;;;18.97;55.99;100015.95;128387;1101;63493;-75
2021/05/11 12:47:09;;;;;;;2.13;0.67;;;;;;;18.93;55.94;100016.47;128385;1101;62308;-77
2021/05/11 12:49:37;;;;;;;2.30;0.80;;;;;;;18.89;55.49;100018.02;128428;1101;62264;-78
2021/05/11 12:52:08;;;;;;;2.50;1.17;;;;;;;18.89;55.79;100009.95;128387;1101;62306;-76
2021/05/11 12:54:45;;;;;;;2.43;0.87;;;;;;;18.98;56.32;100015.72;127981;1101;63159;-75
2021/05/11 12:57:30;;;;;;;3.00;1.10;;;;;;;18.99;55.11;100030.77;128029;1101;62569;-76
2021/05/11 13:00:08;;;;;;;2.03;1.10;;;;;;;19.00;56.08;100032.41;128399;1101;62168;-79
2021/05/11 13:27:21;;;;;;;2.50;1.00;;;;;;;18.58;57.09;100040.06;128496;1101;63873;-83
2021/05/11 13:35:04;;;;;;;2.00;0.83;;;;;;;18.60;57.37;100032.58;128458;1101;62236;-81
2021/05/11 13:37:31;;;;;;;3.83;1.00;;;;;;;18.65;57.86;100024.59;128456;1101;62469;-81
2021/05/11 13:40:00;;;;;;;1.80;1.07;;;;;;;18.68;57.36;100022.23;128515;1101;62659;-81
2021/05/11 13:42:28;;;;;;;3.17;1.10;;;;;;;18.64;57.40;100013.03;128473;1101;62215;-81
2021/05/11 13:44:56;;;;;;;3.80;1.90;;;;;;;18.54;57.57;100007.49;128477;1101;62295;-81
2021/05/11 13:47:24;;;;;;;4.83;3.27;;;;;;;18.50;57.74;100022.47;128225;1103;62323;-83
2021/05/11 13:50:00;;;;;;;2.40;1.00;;;;;;;18.39;58.58;100016.12;128298;1101;62158;-83
2021/05/11 13:52:28;;;;;;;5.97;2.60;;;;;;;18.28;58.79;100015.13;128496;1101;62280;-83
2021/05/11 13:54:59;;;;;;;4.53;1.23;;;;;;;18.15;58.96;100010.08;128475;1101;62130;-83
2021/05/11 14:02:58;;;;;;;3.10;1.27;;;;;;;17.90;60.07;100024.66;128517;1101;62853;-83
2021/05/11 14:05:25;;;;;;;2.30;1.30;;;;;;;17.85;60.04;100021.88;128212;1101;62264;-81
2021/05/11 14:07:52;;;;;;;1.77;1.10;;;;;;;17.78;60.40;100028.41;128511;1101;62968;-81
2021/05/11 14:10:19;;;;;;;1.90;1.00;;;;;;;17.73;60.73;100019.20;128533;1101;62044;-82
2021/05/11 14:12:46;;;;;;;3.43;1.87;;;;;;;17.72;60.42;100022.11;128485;1101;62277;-82
2021/05/11 14:15:14;;;;;;;2.70;1.10;;;;;;;17.67;60.56;100016.66;128476;1101;62084;-80
2021/05/11 14:17:41;;;;;;;1.90;1.00;;;;;;;17.63;60.95;100026.23;128475;1101;62355;-81
2021/05/11 14:20:09;;;;;;;3.70;1.00;;;;;;;17.59;61.15;100017.84;128523;1101;62009;-81
2021/05/11 14:22:36;;;;;;;5.20;2.77;;;;;;;17.49;61.01;100034.55;128211;1101;62255;-80
2021/05/11 14:25:04;;;;;;;1.33;0.80;;;;;;;17.41;61.37;100026.06;128416;1101;62534;-80
2021/05/11 14:27:31;;;;;;;3.53;0.90;;;;;;;17.31;61.81;100032.02;128528;1101;62025;-81
2021/05/11 14:29:58;;;;;;;2.37;1.00;;;;;;;17.22;61.87;100034.24;128425;1101;62341;-80
2021/05/11 14:32:25;;;;;;;4.00;1.97;;;;;;;17.18;61.98;100037.63;128505;1101;62263;-81
2021/05/11 14:34:53;;;;;;;2.63;1.13;;;;;;;17.12;62.58;100029.46;128503;1101;62259;-81
2021/05/11 14:37:20;;;;;;;1.53;0.90;;;;;;;17.05;62.65;100028.78;128206;1101;62120;-79
2021/05/11 14:39:47;;;;;;;8.37;2.17;;;;;;;16.98;62.83;100033.45;128506;1101;62357;-81
2021/05/11 14:42:15;;;;;;;5.03;1.80;;;;;;;16.95;63.04;100041.13;128462;1101;62165;-79
2021/05/11 14:44:42;;;;;;;4.43;1.17;;;;;;;16.89;63.42;100043.70;128552;1101;62147;-79
2021/05/11 14:47:09;;;;;;;2.70;1.37;;;;;;;16.90;63.07;100044.52;128506;1101;63101;-79
2021/05/11 14:49:36;;;;;;;2.40;0.80;;;;;;;16.94;63.84;100036.81;128318;1101;64042;-79
2021/05/11 14:52:07;;;;;;;3.40;1.20;;;;;;;16.97;62.98;100034.48;128524;1101;62094;-80
2021/05/11 14:54:34;;;;;;;3.73;1.00;;;;;;;16.99;62.74;100024.35;128539;1101;62240;-80
2021/05/11 14:57:01;;;;;;;2.17;0.70;;;;;;;17.04;62.90;100021.80;128325;1101;62249;-79
2021/05/11 14:59:28;;;;;;;2.20;0.90;;;;;;;17.09;62.81;100024.58;128484;1101;62270;-79
2021/05/11 15:01:56;;;;;;;2.13;0.90;;;;;;;17.14;63.35;100033.79;128501;1101;62039;-79
2021/05/11 15:04:23;;;;;;;1.80;1.00;;;;;;;17.18;63.30;100029.59;128521;1101;62667;-79
2021/05/11 15:06:52;;;;;;;2.53;1.40;;;;;;;17.22;63.01;100030.75;128497;1101;62212;-79
2021/05/11 15:09:21;;;;;;;1.90;0.97;;;;;;;17.21;63.07;100034.47;128493;1101;61886;-80
2021/05/11 15:11:47;;;;;;;1.63;0.93;;;;;;;17.20;63.30;100030.17;128548;1101;62252;-80
2021/05/11 15:14:15;;;;;;;3.83;1.10;;;;;;;17.19;62.80;100032.05;128513;1101;62548;-80
2021/05/11 15:16:42;;;;;;;4.27;1.00;;;;;;;17.19;62.91;100033.89;128445;1101;63341;-78
2021/05/11 15:19:10;;;;;;;2.50;0.95;;;;;;;17.10;63.21;100036.92;128433;1101;62316;-78
2021/05/11 15:21:39;;;;;;;2.55;1.20;;;;;;;17.01;63.88;100026.80;128480;1101;62199;-78
2021/05/11 15:24:09;;;;;;;2.43;0.70;;;;;;;16.96;64.33;100019.48;128497;1101;62968;-77